Terminal Aerodrome Forecast
Issued by NWS Charleston, SC

Home | Current Version | Previous Version | Text Only | Print | Product List | Glossary On
Versions: 1 2 3 4 5 6 7 8 9 10 11 12
000
FTUS42 KCHS 182327
TAFCHS
TAF
KCHS 182327Z 1900/1924 21007KT P6SM SCT200
     FM190700 23010KT P6SM BKN060
     FM190900 25010G18KT P6SM VCSH OVC030
     FM191200 28008KT P6SM SCT020 OVC060
     FM191500 30012G18KT P6SM SCT250
     FM191800 32008KT P6SM SKC=

USA.gov is the U.S. government's official web portal to all federal, state and local government web resources and services.